createdAt,value
2017-03-05T00:00:37.107Z,99.99
2017-03-05T00:01:37.115Z,99.99
2017-03-05T00:02:36.675Z,99.99
2017-03-05T00:03:36.676Z,99.99
2017-03-05T00:04:37.030Z,99.99
2017-03-05T00:05:37.040Z,99.99
2017-03-05T00:06:36.981Z,99.99
2017-03-05T00:07:36.964Z,99.99
2017-03-05T00:08:36.543Z,99.99
2017-03-05T00:09:36.531Z,99.99
2017-03-05T00:10:36.951Z,99.99
2017-03-05T00:11:36.881Z,99.99
2017-03-05T00:12:36.901Z,99.99
2017-03-05T00:13:36.445Z,99.99
2017-03-05T00:14:36.815Z,99.99
2017-03-05T00:15:36.822Z,99.99
2017-03-05T00:16:36.777Z,99.99
2017-03-05T00:17:36.756Z,99.99
2017-03-05T00:18:36.737Z,99.99
2017-03-05T00:19:36.746Z,99.99
2017-03-05T00:20:36.316Z,99.99
2017-03-05T00:21:36.281Z,99.99
2017-03-05T00:22:36.254Z,99.99
2017-03-05T00:23:36.234Z,99.99
2017-03-05T00:24:36.600Z,99.99
2017-03-05T00:25:36.591Z,99.99
2017-03-05T00:26:36.563Z,99.99
2017-03-05T00:27:36.155Z,99.99
2017-03-05T00:28:36.242Z,99.99
2017-03-05T00:29:36.532Z,99.99
2017-03-05T00:30:36.540Z,99.99
2017-03-05T00:31:36.481Z,99.99
2017-03-05T00:32:36.489Z,99.99
2017-03-05T00:33:36.421Z,99.99
2017-03-05T00:34:36.449Z,99.99
2017-03-05T00:35:35.997Z,99.99
2017-03-05T00:36:36.408Z,99.99
2017-03-05T00:37:35.946Z,99.99
2017-03-05T00:38:36.307Z,99.99
2017-03-05T00:39:35.905Z,99.99
2017-03-05T00:40:36.279Z,99.99
2017-03-05T00:41:35.856Z,99.99
2017-03-05T00:42:35.833Z,99.99
2017-03-05T00:43:36.236Z,99.99
2017-03-05T00:44:36.194Z,99.99
2017-03-05T00:45:35.765Z,99.99
2017-03-05T00:46:36.139Z,99.99
2017-03-05T00:47:36.107Z,99.99
2017-03-05T00:48:36.091Z,99.99
2017-03-05T00:49:36.090Z,99.99
2017-03-05T00:50:36.070Z,99.99
2017-03-05T00:51:35.650Z,99.99
2017-03-05T00:52:36.023Z,99.99
2017-03-05T00:53:35.987Z,99.99
2017-03-05T00:54:35.973Z,99.99
2017-03-05T00:55:35.949Z,99.99
2017-03-05T00:56:35.927Z,99.99
2017-03-05T00:57:35.926Z,99.99
2017-03-05T00:58:35.876Z,99.99
2017-03-05T00:59:35.487Z,99.99
2017-03-05T01:00:35.843Z,99.99
2017-03-05T01:01:35.830Z,99.99
2017-03-05T01:02:35.804Z,99.99
2017-03-05T01:03:35.785Z,99.99
2017-03-05T01:04:35.362Z,99.99
2017-03-05T01:05:35.732Z,99.99
2017-03-05T01:06:35.710Z,99.99
2017-03-05T01:07:35.306Z,99.99
2017-03-05T01:08:35.671Z,99.99
2017-03-05T01:09:35.660Z,99.99
2017-03-05T01:10:35.621Z,99.99
2017-03-05T01:11:35.604Z,99.99
2017-03-05T01:12:35.200Z,99.99
2017-03-05T01:13:35.169Z,99.99
2017-03-05T01:14:35.169Z,99.99
2017-03-05T01:15:35.518Z,99.99
2017-03-05T01:16:35.508Z,99.99
2017-03-05T01:17:35.488Z,99.99
2017-03-05T01:18:35.476Z,99.99
2017-03-05T01:19:35.432Z,99.99
2017-03-05T01:20:35.404Z,99.99
2017-03-05T01:21:35.004Z,99.99
2017-03-05T01:22:34.991Z,99.99
2017-03-05T01:23:35.344Z,99.99
2017-03-05T01:24:35.323Z,99.99
2017-03-05T01:25:35.295Z,99.99
2017-03-05T01:26:35.291Z,99.99
2017-03-05T01:27:34.872Z,99.99
2017-03-05T01:28:34.887Z,99.99
2017-03-05T01:29:35.215Z,99.99
2017-03-05T01:30:34.891Z,99.99
2017-03-05T01:31:34.788Z,99.99
2017-03-05T01:32:35.163Z,99.99
2017-03-05T01:33:35.147Z,99.99
2017-03-05T01:34:35.230Z,99.99
2017-03-05T01:35:35.090Z,99.99
2017-03-05T01:36:35.074Z,99.99
2017-03-05T01:37:35.046Z,99.99
2017-03-05T01:38:35.134Z,99.99
2017-03-05T01:39:35.011Z,99.99
2017-03-05T01:40:34.632Z,99.99
2017-03-05T01:41:34.586Z,99.99
2017-03-05T01:42:34.973Z,99.99
2017-03-05T01:43:34.535Z,99.99
2017-03-05T01:44:35.019Z,99.99
2017-03-05T01:45:34.493Z,99.99
2017-03-05T01:46:34.860Z,99.99
2017-03-05T01:47:34.843Z,99.99
2017-03-05T01:48:34.868Z,99.99
2017-03-05T01:49:34.410Z,99.99
2017-03-05T01:50:34.432Z,99.99
2017-03-05T01:51:34.758Z,99.99
2017-03-05T01:52:34.732Z,99.99
2017-03-05T01:53:34.710Z,99.99
2017-03-05T01:54:34.688Z,99.99
2017-03-05T01:55:34.269Z,99.99
2017-03-05T01:56:34.247Z,99.99
2017-03-05T01:57:34.634Z,99.99
2017-03-05T01:58:34.605Z,99.99
2017-03-05T01:59:34.599Z,99.99
2017-03-05T02:00:34.558Z,99.99
2017-03-05T02:01:34.538Z,99.99
2017-03-05T02:02:34.519Z,99.99
2017-03-05T02:03:34.499Z,99.99
2017-03-05T02:04:34.475Z,99.99
2017-03-05T02:05:34.442Z,99.99
2017-03-05T02:06:34.431Z,99.99
2017-03-05T02:07:34.408Z,99.99
2017-03-05T02:08:34.392Z,99.99
2017-03-05T02:09:33.978Z,99.99
2017-03-05T02:10:34.352Z,99.99
2017-03-05T02:11:34.332Z,99.99
2017-03-05T02:12:34.301Z,99.99
2017-03-05T02:13:34.308Z,99.99
2017-03-05T02:14:33.927Z,99.99
2017-03-05T02:15:34.238Z,99.99
2017-03-05T02:16:34.217Z,99.99
2017-03-05T02:17:34.196Z,99.99
2017-03-05T02:18:33.788Z,99.99
2017-03-05T02:19:34.154Z,99.99
2017-03-05T02:20:34.133Z,99.99
2017-03-05T02:21:34.122Z,99.99
2017-03-05T02:22:34.095Z,99.99
2017-03-05T02:23:34.074Z,99.99
2017-03-05T02:24:33.656Z,99.99
2017-03-05T02:25:34.021Z,99.99
2017-03-05T02:26:33.621Z,99.99
2017-03-05T02:27:33.985Z,99.99
2017-03-05T02:28:33.983Z,99.99
2017-03-05T02:29:33.549Z,99.99
2017-03-05T02:30:33.534Z,99.99
2017-03-05T02:31:33.511Z,99.99
2017-03-05T02:32:33.478Z,99.99
2017-03-05T02:33:33.847Z,99.99
2017-03-05T02:34:33.827Z,99.99
2017-03-05T02:35:33.435Z,99.99
2017-03-05T02:36:33.794Z,99.99
2017-03-05T02:37:33.376Z,99.99
2017-03-05T02:38:33.755Z,99.99
2017-03-05T02:39:33.712Z,99.99
2017-03-05T02:40:33.703Z,99.99
2017-03-05T02:41:33.304Z,99.99
2017-03-05T02:42:33.662Z,99.99
2017-03-05T02:43:33.638Z,99.99
2017-03-05T02:44:33.622Z,99.99
2017-03-05T02:45:33.601Z,99.99
2017-03-05T02:46:33.573Z,99.99
2017-03-05T02:47:33.540Z,99.99
2017-03-05T02:48:33.529Z,99.99
2017-03-05T02:49:33.119Z,99.99
2017-03-05T02:50:33.472Z,99.99
2017-03-05T02:51:33.079Z,99.99
2017-03-05T02:52:33.458Z,99.99
2017-03-05T02:53:33.420Z,99.99
2017-03-05T02:54:33.396Z,99.99
2017-03-05T02:55:33.376Z,99.99
2017-03-05T02:56:33.356Z,99.99
2017-03-05T02:57:33.334Z,99.99
2017-03-05T02:58:33.323Z,99.99
2017-03-05T02:59:32.894Z,99.99
2017-03-05T03:00:32.883Z,99.99
2017-03-05T03:01:33.244Z,99.99
2017-03-05T03:02:33.222Z,99.99
2017-03-05T03:03:33.201Z,99.99
2017-03-05T03:04:32.789Z,99.99
2017-03-05T03:05:33.162Z,99.99
2017-03-05T03:06:32.762Z,99.99
2017-03-05T03:07:33.115Z,99.99
2017-03-05T03:08:33.099Z,99.99
2017-03-05T03:09:33.071Z,99.99
2017-03-05T03:10:33.047Z,99.99
2017-03-05T03:11:32.639Z,99.99
2017-03-05T03:12:33.037Z,99.99
2017-03-05T03:13:32.986Z,99.99
2017-03-05T03:14:32.980Z,99.99
2017-03-05T03:15:32.554Z,99.99
2017-03-05T03:16:32.537Z,99.99
2017-03-05T03:17:32.513Z,99.99
2017-03-05T03:18:32.483Z,99.99
2017-03-05T03:19:32.475Z,99.99
2017-03-05T03:20:32.843Z,99.99
2017-03-05T03:21:32.423Z,99.99
2017-03-05T03:22:32.802Z,99.99
2017-03-05T03:23:32.379Z,99.99
2017-03-05T03:24:32.363Z,99.99
2017-03-05T03:25:32.722Z,99.99
2017-03-05T03:26:32.719Z,99.99
2017-03-05T03:27:32.292Z,99.99
2017-03-05T03:28:32.278Z,99.99
2017-03-05T03:29:32.636Z,99.99
2017-03-05T03:30:32.228Z,99.99
2017-03-05T03:31:32.217Z,99.99
2017-03-05T03:32:32.191Z,99.99
2017-03-05T03:33:32.566Z,99.99
2017-03-05T03:34:32.528Z,99.99
2017-03-05T03:35:32.124Z,99.99
2017-03-05T03:36:32.499Z,99.99
2017-03-05T03:37:32.092Z,99.99
2017-03-05T03:38:32.451Z,99.99
2017-03-05T03:39:32.044Z,99.99
2017-03-05T03:40:32.031Z,99.99
2017-03-05T03:41:31.988Z,99.99
2017-03-05T03:42:32.365Z,99.99
2017-03-05T03:43:32.340Z,99.99
2017-03-05T03:44:31.940Z,99.99
2017-03-05T03:45:31.904Z,99.99
2017-03-05T03:46:32.279Z,99.99
2017-03-05T03:47:32.244Z,99.99
2017-03-05T03:48:31.847Z,99.99
2017-03-05T03:49:32.216Z,99.99
2017-03-05T03:50:31.799Z,99.99
2017-03-05T03:51:32.167Z,99.99
2017-03-05T03:52:31.762Z,99.99
2017-03-05T03:53:31.735Z,99.99
2017-03-05T03:54:32.115Z,99.99
2017-03-05T03:55:32.078Z,99.99
2017-03-05T03:56:31.663Z,99.99
2017-03-05T03:57:32.033Z,99.99
2017-03-05T03:58:32.010Z,99.99
2017-03-05T03:59:31.993Z,99.99
2017-03-05T04:00:31.576Z,99.99
2017-03-05T04:01:31.572Z,99.99
2017-03-05T04:02:31.548Z,99.99
2017-03-05T04:03:31.897Z,99.99
2017-03-05T04:04:31.880Z,99.99
2017-03-05T04:05:31.482Z,99.99
2017-03-05T04:06:31.847Z,99.99
2017-03-05T04:07:31.807Z,99.99
2017-03-05T04:08:31.805Z,99.99
2017-03-05T04:09:31.785Z,99.99
2017-03-05T04:10:31.356Z,99.99
2017-03-05T04:11:31.746Z,99.99
2017-03-05T04:12:31.714Z,99.99
2017-03-05T04:13:31.685Z,99.99
2017-03-05T04:14:31.270Z,99.99
2017-03-05T04:15:31.644Z,99.99
2017-03-05T04:16:31.633Z,99.99
2017-03-05T04:17:31.210Z,99.99
2017-03-05T04:18:31.572Z,99.99
2017-03-05T04:19:31.549Z,99.99
2017-03-05T04:20:31.139Z,99.99
2017-03-05T04:21:31.512Z,99.99
2017-03-05T04:22:31.490Z,99.99
2017-03-05T04:23:31.076Z,99.99
2017-03-05T04:24:31.459Z,99.99
2017-03-05T04:25:31.059Z,99.99
2017-03-05T04:26:31.408Z,99.99
2017-03-05T04:27:31.375Z,99.99
2017-03-05T04:28:31.368Z,99.99
2017-03-05T04:29:30.942Z,99.99
2017-03-05T04:30:30.922Z,99.99
2017-03-05T04:31:30.905Z,99.99
2017-03-05T04:32:31.272Z,99.99
2017-03-05T04:33:31.274Z,99.99
2017-03-05T04:34:30.853Z,99.99
2017-03-05T04:35:31.282Z,99.99
2017-03-05T04:36:30.803Z,99.99
2017-03-05T04:37:31.181Z,99.99
2017-03-05T04:38:31.142Z,99.99
2017-03-05T04:39:31.130Z,99.99
2017-03-05T04:40:31.100Z,99.99
2017-03-05T04:41:31.080Z,99.99
2017-03-05T04:42:31.059Z,99.99
2017-03-05T04:43:31.128Z,99.99
2017-03-05T04:44:30.617Z,99.99
2017-03-05T04:45:30.696Z,99.99
2017-03-05T04:46:30.966Z,99.99
2017-03-05T04:47:30.546Z,99.99
2017-03-05T04:48:30.916Z,99.99
2017-03-05T04:49:30.899Z,99.99
2017-03-05T04:50:30.874Z,99.99
2017-03-05T04:51:30.855Z,99.99
2017-03-05T04:52:30.824Z,99.99
2017-03-05T04:53:30.823Z,99.99
2017-03-05T04:54:30.793Z,99.99
2017-03-05T04:55:30.775Z,99.99
2017-03-05T04:56:30.762Z,99.99
2017-03-05T04:57:30.382Z,99.99
2017-03-05T04:58:30.314Z,99.99
2017-03-05T04:59:30.800Z,99.99
2017-03-05T05:00:30.677Z,99.99
2017-03-05T05:01:30.639Z,99.99
2017-03-05T05:02:30.656Z,99.99
2017-03-05T05:03:30.605Z,99.99
2017-03-05T05:04:30.188Z,99.99
2017-03-05T05:05:30.160Z,99.99
2017-03-05T05:06:30.543Z,99.99
2017-03-05T05:07:30.511Z,99.99
2017-03-05T05:08:30.484Z,99.99
2017-03-05T05:09:30.085Z,99.99
2017-03-05T05:10:30.434Z,99.99
2017-03-05T05:11:30.054Z,99.99
2017-03-05T05:12:30.016Z,99.99
2017-03-05T05:13:30.377Z,99.99
2017-03-05T05:14:29.971Z,99.99
2017-03-05T05:15:29.953Z,99.99
2017-03-05T05:16:29.929Z,99.99
2017-03-05T05:17:30.289Z,99.99
2017-03-05T05:18:30.389Z,99.99
2017-03-05T05:19:29.862Z,99.99
2017-03-05T05:20:30.240Z,99.99
2017-03-05T05:21:30.208Z,99.99
2017-03-05T05:22:30.249Z,99.99
2017-03-05T05:23:30.166Z,99.99
2017-03-05T05:24:30.136Z,99.99
2017-03-05T05:25:30.106Z,99.99
2017-03-05T05:26:29.699Z,99.99
2017-03-05T05:27:30.066Z,99.99
2017-03-05T05:28:29.664Z,99.99
2017-03-05T05:29:30.024Z,99.99
2017-03-05T05:30:29.654Z,99.99
2017-03-05T05:31:29.982Z,99.99
2017-03-05T05:32:29.582Z,99.99
2017-03-05T05:33:29.942Z,99.99
2017-03-05T05:34:29.922Z,99.99
2017-03-05T05:35:29.910Z,99.99
2017-03-05T05:36:29.477Z,99.99
2017-03-05T05:37:29.461Z,99.99
2017-03-05T05:38:29.847Z,99.99
2017-03-05T05:39:29.808Z,99.99
2017-03-05T05:40:29.393Z,99.99
2017-03-05T05:41:29.776Z,99.99
2017-03-05T05:42:29.754Z,99.99
2017-03-05T05:43:29.728Z,99.99
2017-03-05T05:44:29.717Z,99.99
2017-03-05T05:45:29.685Z,99.99
2017-03-05T05:46:29.647Z,99.99
2017-03-05T05:47:29.641Z,99.99
2017-03-05T05:48:29.617Z,99.99
2017-03-05T05:49:29.605Z,99.99
2017-03-05T05:50:29.578Z,99.99
2017-03-05T05:51:29.552Z,99.99
2017-03-05T05:52:29.531Z,99.99
2017-03-05T05:53:29.501Z,99.99
2017-03-05T05:54:29.475Z,99.99
2017-03-05T05:55:29.071Z,99.99
2017-03-05T05:56:29.440Z,99.99
2017-03-05T05:57:29.421Z,99.99
2017-03-05T05:58:29.399Z,99.99
2017-03-05T05:59:28.977Z,99.99
2017-03-05T06:00:28.967Z,99.99
2017-03-05T06:01:29.336Z,99.99
2017-03-05T06:02:29.316Z,99.99
2017-03-05T06:03:29.296Z,99.99
2017-03-05T06:04:29.266Z,99.99
2017-03-05T06:05:28.845Z,99.99
2017-03-05T06:06:28.824Z,99.99
2017-03-05T06:07:29.203Z,99.99
2017-03-05T06:08:29.168Z,99.99
2017-03-05T06:09:29.162Z,99.99
2017-03-05T06:10:28.758Z,99.99
2017-03-05T06:11:29.161Z,99.99
2017-03-05T06:12:28.712Z,99.99
2017-03-05T06:13:29.065Z,99.99
2017-03-05T06:14:29.101Z,99.99
2017-03-05T06:15:29.040Z,99.99
2017-03-05T06:16:28.998Z,99.99
2017-03-05T06:17:28.979Z,99.99
2017-03-05T06:18:28.969Z,99.99
2017-03-05T06:19:28.545Z,99.99
2017-03-05T06:20:28.907Z,99.99
2017-03-05T06:21:28.507Z,99.99
2017-03-05T06:22:28.485Z,99.99
2017-03-05T06:23:28.855Z,99.99
2017-03-05T06:24:28.436Z,99.99
2017-03-05T06:25:28.807Z,99.99
2017-03-05T06:26:28.795Z,99.99
2017-03-05T06:27:28.764Z,99.99
2017-03-05T06:28:28.753Z,99.99
2017-03-05T06:29:28.711Z,99.99
2017-03-05T06:30:28.702Z,99.99
2017-03-05T06:31:28.670Z,99.99
2017-03-05T06:32:28.661Z,99.99
2017-03-05T06:33:28.250Z,99.99
2017-03-05T06:34:28.630Z,99.99
2017-03-05T06:35:28.198Z,99.99
2017-03-05T06:36:28.614Z,99.99
2017-03-05T06:37:28.543Z,99.99
2017-03-05T06:38:28.138Z,99.99
2017-03-05T06:39:28.565Z,99.99
2017-03-05T06:40:28.468Z,99.99
2017-03-05T06:41:28.453Z,99.99
2017-03-05T06:42:28.436Z,99.99
2017-03-05T06:43:28.028Z,99.99
2017-03-05T06:44:28.396Z,99.99
2017-03-05T06:45:28.386Z,99.99
2017-03-05T06:46:27.970Z,99.99
2017-03-05T06:47:28.345Z,99.99
2017-03-05T06:48:28.303Z,99.99
2017-03-05T06:49:28.276Z,99.99
2017-03-05T06:50:27.873Z,99.99
2017-03-05T06:51:27.862Z,99.99
2017-03-05T06:52:28.292Z,99.99
2017-03-05T06:53:28.209Z,99.99
2017-03-05T06:54:27.786Z,99.99
2017-03-05T06:55:28.189Z,99.99
2017-03-05T06:56:28.149Z,99.99
2017-03-05T06:57:28.118Z,99.99
2017-03-05T06:58:28.103Z,99.99
2017-03-05T06:59:28.084Z,99.99
2017-03-05T07:00:28.036Z,99.99
2017-03-05T07:01:28.036Z,99.99
2017-03-05T07:02:27.998Z,99.99
2017-03-05T07:03:27.976Z,99.99
2017-03-05T07:04:27.564Z,99.99
2017-03-05T07:05:27.929Z,99.99
2017-03-05T07:06:27.913Z,99.99
2017-03-05T07:07:27.892Z,99.99
2017-03-05T07:08:27.480Z,99.99
2017-03-05T07:09:27.843Z,99.99
2017-03-05T07:10:27.824Z,99.99
2017-03-05T07:11:27.810Z,99.99
2017-03-05T07:12:27.403Z,99.99
2017-03-05T07:13:27.381Z,99.99
2017-03-05T07:14:27.741Z,99.99
2017-03-05T07:15:27.727Z,99.99
2017-03-05T07:16:27.692Z,99.99
2017-03-05T07:17:27.673Z,99.99
2017-03-05T07:18:27.256Z,99.99
2017-03-05T07:19:27.662Z,99.99
2017-03-05T07:20:27.607Z,99.99
2017-03-05T07:21:27.193Z,99.99
2017-03-05T07:22:27.165Z,99.99
2017-03-05T07:23:27.145Z,99.99
2017-03-05T07:24:27.524Z,99.99
2017-03-05T07:25:27.515Z,99.99
2017-03-05T07:26:27.482Z,99.99
2017-03-05T07:27:27.061Z,99.99
2017-03-05T07:28:27.433Z,99.99
2017-03-05T07:29:27.421Z,99.99
2017-03-05T07:30:27.400Z,99.99
2017-03-05T07:31:26.991Z,99.99
2017-03-05T07:32:27.020Z,99.99
2017-03-05T07:33:27.321Z,99.99
2017-03-05T07:34:27.316Z,99.99
2017-03-05T07:35:27.280Z,99.99
2017-03-05T07:36:26.866Z,99.99
2017-03-05T07:37:27.247Z,99.99
2017-03-05T07:38:26.887Z,99.99
2017-03-05T07:39:27.194Z,99.99
2017-03-05T07:40:27.283Z,99.99
2017-03-05T07:41:27.145Z,99.99
2017-03-05T07:42:26.828Z,99.99
2017-03-05T07:43:26.725Z,99.99
2017-03-05T07:44:27.119Z,99.99
2017-03-05T07:45:27.074Z,99.99
2017-03-05T07:46:27.044Z,99.99
2017-03-05T07:47:27.026Z,99.99
2017-03-05T07:48:26.614Z,99.99
2017-03-05T07:49:26.590Z,99.99
2017-03-05T07:50:27.090Z,99.99
2017-03-05T07:51:26.549Z,99.99
2017-03-05T07:52:26.978Z,99.99
2017-03-05T07:53:26.935Z,99.99
2017-03-05T07:54:26.868Z,99.99
2017-03-05T07:55:26.978Z,99.99
2017-03-05T07:56:26.438Z,99.99
2017-03-05T07:57:26.409Z,99.99
2017-03-05T07:58:26.516Z,99.99
2017-03-05T07:59:26.808Z,99.99
2017-03-05T08:00:26.745Z,99.99
2017-03-05T08:01:26.825Z,99.99
2017-03-05T08:02:26.789Z,99.99
2017-03-05T08:03:26.287Z,99.99
2017-03-05T08:04:26.652Z,99.99
2017-03-05T08:05:26.251Z,99.99
2017-03-05T08:06:26.323Z,99.99
2017-03-05T08:07:26.602Z,99.99
2017-03-05T08:08:26.201Z,99.99
2017-03-05T08:09:26.630Z,99.99
2017-03-05T08:10:26.285Z,99.99
2017-03-05T08:11:26.524Z,99.99
2017-03-05T08:12:26.509Z,99.99
2017-03-05T08:13:26.493Z,99.99
2017-03-05T08:14:26.527Z,99.99
2017-03-05T08:15:26.432Z,99.99
2017-03-05T08:16:26.129Z,99.99
2017-03-05T08:17:26.000Z,99.99
2017-03-05T08:18:26.385Z,99.99
2017-03-05T08:19:26.369Z,99.99
2017-03-05T08:20:25.947Z,99.99
2017-03-05T08:21:25.934Z,99.99
2017-03-05T08:22:25.901Z,99.99
2017-03-05T08:23:26.287Z,99.99
2017-03-05T08:24:26.262Z,99.99
2017-03-05T08:25:25.888Z,99.99
2017-03-05T08:26:26.231Z,99.99
2017-03-05T08:27:26.192Z,99.99
2017-03-05T08:28:25.780Z,99.99
2017-03-05T08:29:26.162Z,99.99
2017-03-05T08:30:25.738Z,99.99
2017-03-05T08:31:26.103Z,99.99
2017-03-05T08:32:26.078Z,99.99
2017-03-05T08:33:26.099Z,99.99
2017-03-05T08:34:26.039Z,99.99
2017-03-05T08:35:26.080Z,99.99
2017-03-05T08:36:26.026Z,99.99
2017-03-05T08:37:25.988Z,99.99
2017-03-05T08:38:25.974Z,99.99
2017-03-05T08:39:25.567Z,99.99
2017-03-05T08:40:25.544Z,99.99
2017-03-05T08:41:25.900Z,99.99
2017-03-05T08:42:25.945Z,99.99
2017-03-05T08:43:25.854Z,99.99
2017-03-05T08:44:25.841Z,99.99
2017-03-05T08:45:25.431Z,99.99
2017-03-05T08:46:25.785Z,99.99
2017-03-05T08:47:25.387Z,99.99
2017-03-05T08:48:25.367Z,99.99
2017-03-05T08:49:25.730Z,99.99
2017-03-05T08:50:25.710Z,99.99
2017-03-05T08:51:25.687Z,99.99
2017-03-05T08:52:25.671Z,99.99
2017-03-05T08:53:25.266Z,99.99
2017-03-05T08:54:25.624Z,99.99
2017-03-05T08:55:25.607Z,99.99
2017-03-05T08:56:25.595Z,99.99
2017-03-05T08:57:25.565Z,99.99
2017-03-05T08:58:25.545Z,99.99
2017-03-05T08:59:25.133Z,99.99
2017-03-05T09:00:25.516Z,99.99
2017-03-05T09:01:25.485Z,99.99
2017-03-05T09:02:25.471Z,99.99
2017-03-05T09:03:25.455Z,99.99
2017-03-05T09:04:25.419Z,99.99
2017-03-05T09:05:25.413Z,99.99
2017-03-05T09:06:25.380Z,99.99
2017-03-05T09:07:25.356Z,99.99
2017-03-05T09:08:25.338Z,99.99
2017-03-05T09:09:24.965Z,99.99
2017-03-05T09:10:25.311Z,99.99
2017-03-05T09:11:24.892Z,99.99
2017-03-05T09:12:25.257Z,99.99
2017-03-05T09:13:25.230Z,99.99
2017-03-05T09:14:25.221Z,99.99
2017-03-05T09:15:25.185Z,99.99
2017-03-05T09:16:25.191Z,99.99
2017-03-05T09:17:24.767Z,99.99
2017-03-05T09:18:24.812Z,99.99
2017-03-05T09:19:24.719Z,99.99
2017-03-05T09:20:25.111Z,99.99
2017-03-05T09:21:25.070Z,99.99
2017-03-05T09:22:25.050Z,99.99
2017-03-05T09:23:25.026Z,99.99
2017-03-05T09:24:24.608Z,99.99
2017-03-05T09:25:24.979Z,99.99
2017-03-05T09:26:24.970Z,99.99
2017-03-05T09:27:24.940Z,99.99
2017-03-05T09:28:24.917Z,99.99
2017-03-05T09:29:24.899Z,99.99
2017-03-05T09:30:24.881Z,99.99
2017-03-05T09:31:24.899Z,99.99
2017-03-05T09:32:24.851Z,99.99
2017-03-05T09:33:24.827Z,99.18
2017-03-05T09:34:24.804Z,98.61
2017-03-05T09:35:24.788Z,98.08
2017-03-05T09:36:24.779Z,97.27
2017-03-05T09:37:24.364Z,97.61
2017-03-05T09:38:24.746Z,96.75
2017-03-05T09:39:24.716Z,96.37
2017-03-05T09:40:24.718Z,96.98
2017-03-05T09:41:24.297Z,96.08
2017-03-05T09:42:24.672Z,95.41
2017-03-05T09:43:24.290Z,94.84
2017-03-05T09:44:24.630Z,94.17
2017-03-05T09:45:24.621Z,95.61
2017-03-05T09:46:24.597Z,96.22
2017-03-05T09:47:24.202Z,93.98
2017-03-05T09:48:24.568Z,93.26
2017-03-05T09:49:24.166Z,91.49
2017-03-05T09:50:24.537Z,90.48
2017-03-05T09:51:24.548Z,90.2
2017-03-05T09:52:24.519Z,90.25
2017-03-05T09:53:24.510Z,90.16
2017-03-05T09:54:24.490Z,89.43
2017-03-05T09:55:24.471Z,89.39
2017-03-05T09:56:24.059Z,90.16
2017-03-05T09:57:24.056Z,90.44
2017-03-05T09:58:24.432Z,90.97
2017-03-05T09:59:24.412Z,89.77
2017-03-05T10:00:24.402Z,88.67
2017-03-05T10:01:24.390Z,89.15
2017-03-05T10:02:23.987Z,90.97
2017-03-05T10:03:24.390Z,91.88
2017-03-05T10:04:24.339Z,92.41
2017-03-05T10:05:24.374Z,92.74
2017-03-05T10:06:24.303Z,92.07
2017-03-05T10:07:24.306Z,93.46
2017-03-05T10:08:24.275Z,94.17
2017-03-05T10:09:23.876Z,93.88
2017-03-05T10:10:23.861Z,93.36
2017-03-05T10:11:23.840Z,93.36
2017-03-05T10:12:23.832Z,93.26
2017-03-05T10:13:24.305Z,92.88
2017-03-05T10:14:24.184Z,92.97
2017-03-05T10:15:23.771Z,93.12
2017-03-05T10:16:24.162Z,92.41
2017-03-05T10:17:24.139Z,93.22
2017-03-05T10:18:23.729Z,91.83
2017-03-05T10:19:24.149Z,89.06
2017-03-05T10:20:24.089Z,87.33
2017-03-05T10:21:24.077Z,85.65
2017-03-05T10:22:24.048Z,85.51
2017-03-05T10:23:24.040Z,84.55
2017-03-05T10:24:23.634Z,83.54
2017-03-05T10:25:24.006Z,82.38
2017-03-05T10:26:23.997Z,82.63
2017-03-05T10:27:23.588Z,82.43
2017-03-05T10:28:23.976Z,82.38
2017-03-05T10:29:23.963Z,81.43
2017-03-05T10:30:23.541Z,81.71
2017-03-05T10:31:23.925Z,81.81
2017-03-05T10:32:23.912Z,81.81
2017-03-05T10:33:23.917Z,79.74
2017-03-05T10:34:23.883Z,77.95
2017-03-05T10:35:23.492Z,78.89
2017-03-05T10:36:23.872Z,79.18
2017-03-05T10:37:23.867Z,78.93
2017-03-05T10:38:23.460Z,79.26
2017-03-05T10:39:23.437Z,78.27
2017-03-05T10:40:23.428Z,77.69
2017-03-05T10:41:23.808Z,76.65
2017-03-05T10:42:23.406Z,77.65
2017-03-05T10:43:23.788Z,77.4
2017-03-05T10:44:23.759Z,76.92
2017-03-05T10:45:23.743Z,75.39
2017-03-05T10:46:23.344Z,74.51
2017-03-05T10:47:23.728Z,73.55
2017-03-05T10:48:23.718Z,74.95
2017-03-05T10:49:23.703Z,77.08
2017-03-05T10:50:23.307Z,78.63
2017-03-05T10:51:23.298Z,78.63
2017-03-05T10:52:23.271Z,79.33
2017-03-05T10:53:23.652Z,81.45
2017-03-05T10:54:23.260Z,82.37
2017-03-05T10:55:23.631Z,83.18
2017-03-05T10:56:23.621Z,84.33
2017-03-05T10:57:23.600Z,83.47
2017-03-05T10:58:23.574Z,81.7
2017-03-05T10:59:23.568Z,81.3
2017-03-05T11:00:23.549Z,81.36
2017-03-05T11:01:23.537Z,80.59
2017-03-05T11:02:23.518Z,79.39
2017-03-05T11:03:23.506Z,79.57
2017-03-05T11:04:23.493Z,78.76
2017-03-05T11:05:23.096Z,77.69
2017-03-05T11:06:23.473Z,77.69
2017-03-05T11:07:23.055Z,78.91
2017-03-05T11:08:23.428Z,81.36
2017-03-05T11:09:23.053Z,81.84
2017-03-05T11:10:23.013Z,81.7
2017-03-05T11:11:23.398Z,81.89
2017-03-05T11:12:22.980Z,81.79
2017-03-05T11:13:23.364Z,81.55
2017-03-05T11:14:23.338Z,80.88
2017-03-05T11:15:22.978Z,80.65
2017-03-05T11:16:23.308Z,81.41
2017-03-05T11:17:23.298Z,81.79
2017-03-05T11:18:22.897Z,81.7
2017-03-05T11:19:22.921Z,81.03
2017-03-05T11:20:23.236Z,80.61
2017-03-05T11:21:23.241Z,79.85
2017-03-05T11:22:22.821Z,79.69
2017-03-05T11:23:23.195Z,79.56
2017-03-05T11:24:23.178Z,78.99
2017-03-05T11:25:23.166Z,78.99
2017-03-05T11:26:23.164Z,77.78
2017-03-05T11:27:23.112Z,77.06
2017-03-05T11:28:23.102Z,75.81
2017-03-05T11:29:23.087Z,75.09
2017-03-05T11:30:23.071Z,74.16
2017-03-05T11:31:22.658Z,73.34
2017-03-05T11:32:23.031Z,71.66
2017-03-05T11:33:23.018Z,70.54
2017-03-05T11:34:23.010Z,70.98
2017-03-05T11:35:22.607Z,71.52
2017-03-05T11:36:22.578Z,72.09
2017-03-05T11:37:22.570Z,73.94
2017-03-05T11:38:22.553Z,73.69
2017-03-05T11:39:22.655Z,74.45
2017-03-05T11:40:22.904Z,74.04
2017-03-05T11:41:22.895Z,73.9
2017-03-05T11:42:22.875Z,74.85
2017-03-05T11:43:22.863Z,75.3
2017-03-05T11:44:22.453Z,75.24
2017-03-05T11:45:22.542Z,76.1
2017-03-05T11:46:22.414Z,76.54
2017-03-05T11:47:22.400Z,76.57
2017-03-05T11:48:22.400Z,76.64
2017-03-05T11:49:22.360Z,77.5
2017-03-05T11:50:22.345Z,76.54
2017-03-05T11:51:22.437Z,76.29
2017-03-05T11:52:22.838Z,76.14
2017-03-05T11:53:22.697Z,72.9
2017-03-05T11:54:22.295Z,72.07
2017-03-05T11:55:22.646Z,72.8
2017-03-05T11:56:22.643Z,72.52
2017-03-05T11:57:22.227Z,72.58
2017-03-05T11:58:22.606Z,73.08
2017-03-05T11:59:22.583Z,74.04
2017-03-05T12:00:22.660Z,74.8
2017-03-05T12:01:22.192Z,74.99
2017-03-05T12:02:22.553Z,74.8
2017-03-05T12:03:22.532Z,73.63
2017-03-05T12:04:22.595Z,72.03
2017-03-05T12:05:22.480Z,72.61
2017-03-05T12:06:22.465Z,72.23
2017-03-05T12:07:22.449Z,73.05
2017-03-05T12:08:22.469Z,73.97
2017-03-05T12:09:22.416Z,75.43
2017-03-05T12:10:22.028Z,75.05
2017-03-05T12:11:22.394Z,75.14
2017-03-05T12:12:22.392Z,76.54
2017-03-05T12:13:22.342Z,76.64
2017-03-05T12:14:22.347Z,77.01
2017-03-05T12:15:21.942Z,76.57
2017-03-05T12:16:22.393Z,75.62
2017-03-05T12:17:22.282Z,75.81
2017-03-05T12:18:22.312Z,74.57
2017-03-05T12:19:22.254Z,73.94
2017-03-05T12:20:22.234Z,74.09
2017-03-05T12:21:21.857Z,74.57
2017-03-05T12:22:21.801Z,75.05
2017-03-05T12:23:22.183Z,74.57
2017-03-05T12:24:22.229Z,75.1
2017-03-05T12:25:22.169Z,75.05
2017-03-05T12:26:21.752Z,75.34
2017-03-05T12:27:22.111Z,76.77
2017-03-05T12:28:22.137Z,75.47
2017-03-05T12:29:21.687Z,73.97
2017-03-05T12:30:21.661Z,73.55
2017-03-05T12:31:22.047Z,72.63
2017-03-05T12:32:22.025Z,72.54
2017-03-05T12:33:22.012Z,72.44
2017-03-05T12:34:21.596Z,71.77
2017-03-05T12:35:21.976Z,70.12
2017-03-05T12:36:21.584Z,69.74
2017-03-05T12:37:21.564Z,71.14
2017-03-05T12:38:21.532Z,72.12
2017-03-05T12:39:21.912Z,72.31
2017-03-05T12:40:21.893Z,71.83
2017-03-05T12:41:21.862Z,72.44
2017-03-05T12:42:21.473Z,73.17
2017-03-05T12:43:21.839Z,73.46
2017-03-05T12:44:21.813Z,73.99
2017-03-05T12:45:21.797Z,73.8
2017-03-05T12:46:21.778Z,73.52
2017-03-05T12:47:21.373Z,73.99
2017-03-05T12:48:21.755Z,74.09
2017-03-05T12:49:21.728Z,73.71
2017-03-05T12:50:21.717Z,73.96
2017-03-05T12:51:21.306Z,73.77
2017-03-05T12:52:21.674Z,73.44
2017-03-05T12:53:21.266Z,73.92